Time;durP1;ratioP1;P1;durP2;ratioP2;P2;SDS_P1;SDS_P2;PMS_P1;PMS_P2;Temp;Humidity;BMP_temperature;BMP_pressure;BME280_temperature;BME280_humidity;BME280_pressure;Samples;Min_cycle;Max_cycle;Signal;HPM_P1;HPM_P2
2022/03/05 00:01:25;;;;;;;18.48;10.45;;;1.50;99.90;;;;;;5069023;28;20093;-67
2022/03/05 00:03:50;;;;;;;20.55;9.90;;;1.60;99.90;;;;;;5049291;28;20040;-67
2022/03/05 00:06:16;;;;;;;21.42;10.10;;;1.50;99.90;;;;;;5049299;28;20483;-67
2022/03/05 00:08:41;;;;;;;20.40;10.48;;;1.40;99.90;;;;;;5049891;28;20586;-67
2022/03/05 00:11:07;;;;;;;17.88;9.48;;;1.50;99.90;;;;;;5050072;28;20453;-67
2022/03/05 00:13:33;;;;;;;18.35;10.00;;;1.50;99.90;;;;;;5049191;28;20128;-67
2022/03/05 00:15:59;;;;;;;17.27;10.20;;;1.40;99.90;;;;;;5048086;28;20135;-67
2022/03/05 00:18:25;;;;;;;15.02;9.52;;;1.40;99.90;;;;;;5047943;28;20075;-67
2022/03/05 00:20:52;;;;;;;18.13;8.98;;;1.50;99.90;;;;;;5049858;28;20583;-67
2022/03/05 00:23:18;;;;;;;17.48;9.48;;;1.40;99.90;;;;;;5048887;28;20490;-66
2022/03/05 00:25:43;;;;;;;18.52;9.75;;;1.40;99.90;;;;;;5049650;28;20146;-66
2022/03/05 00:28:10;;;;;;;16.65;8.93;;;1.40;99.90;;;;;;5051160;28;20505;-68
2022/03/05 00:30:35;;;;;;;21.13;9.70;;;1.40;99.90;;;;;;5060584;28;20044;-67
2022/03/05 00:33:01;;;;;;;21.00;9.70;;;1.40;99.90;;;;;;5060461;28;20124;-67
2022/03/05 00:35:27;;;;;;;19.02;9.90;;;1.40;99.90;;;;;;5053925;28;20120;-67
2022/03/05 00:37:53;;;;;;;21.45;10.90;;;1.30;99.90;;;;;;5052278;28;20040;-67
2022/03/05 00:40:18;;;;;;;19.52;9.60;;;1.30;99.90;;;;;;5053277;28;20116;-67
2022/03/05 00:42:44;;;;;;;18.42;10.15;;;1.30;99.90;;;;;;5052488;28;20078;-67
2022/03/05 00:45:09;;;;;;;18.33;9.48;;;1.20;99.90;;;;;;5053103;28;20041;-67
2022/03/05 00:47:36;;;;;;;17.75;9.38;;;1.20;99.90;;;;;;5053338;28;20040;-67
2022/03/05 00:50:06;;;;;;;15.73;9.77;;;1.20;99.90;;;;;;5053402;28;20045;-67
2022/03/05 00:52:32;;;;;;;17.50;9.82;;;1.30;99.90;;;;;;5058698;28;20124;-66
2022/03/05 00:54:57;;;;;;;17.67;10.18;;;1.20;99.90;;;;;;5059849;28;20505;-67
2022/03/05 00:57:23;;;;;;;21.33;10.13;;;1.20;99.90;;;;;;5053227;28;20417;-66
2022/03/05 00:59:49;;;;;;;18.45;10.07;;;1.20;99.90;;;;;;5052884;28;20504;-66
2022/03/05 01:02:14;;;;;;;24.50;10.70;;;1.20;99.90;;;;;;5052176;28;20108;-66
2022/03/05 01:04:40;;;;;;;18.70;10.20;;;1.20;99.90;;;;;;5052976;28;20110;-66
2022/03/05 01:07:05;;;;;;;20.73;11.70;;;1.10;99.90;;;;;;5052806;28;20095;-67
2022/03/05 01:09:31;;;;;;;18.10;9.50;;;1.10;99.90;;;;;;5052684;28;20041;-67
2022/03/05 01:11:57;;;;;;;20.08;10.82;;;1.10;99.90;;;;;;5051897;28;20064;-67
2022/03/05 01:14:23;;;;;;;18.25;9.90;;;1.10;99.90;;;;;;5053289;28;20045;-66
2022/03/05 01:16:49;;;;;;;21.92;10.07;;;1.10;99.90;;;;;;5051123;28;20116;-67
2022/03/05 01:19:15;;;;;;;21.50;10.02;;;1.10;99.90;;;;;;5052513;28;20072;-67
2022/03/05 01:21:40;;;;;;;18.00;9.43;;;1.10;99.90;;;;;;5051937;28;20041;-67
2022/03/05 01:24:06;;;;;;;23.60;10.07;;;1.10;99.90;;;;;;5051898;28;20094;-67
2022/03/05 01:26:32;;;;;;;18.67;10.05;;;1.00;99.90;;;;;;5052005;28;20041;-67
2022/03/05 01:28:57;;;;;;;19.85;10.00;;;1.10;99.90;;;;;;5052271;28;20037;-67
2022/03/05 01:31:23;;;;;;;21.15;9.10;;;1.00;99.90;;;;;;5050698;28;20186;-66
2022/03/05 01:33:49;;;;;;;15.90;9.32;;;0.90;99.90;;;;;;5050944;28;20572;-66
2022/03/05 01:36:15;;;;;;;20.05;9.73;;;0.80;99.90;;;;;;5052053;28;20159;-67
2022/03/05 01:38:40;;;;;;;18.38;10.00;;;0.90;99.90;;;;;;5051833;28;20405;-67
2022/03/05 01:41:06;;;;;;;16.02;8.85;;;1.00;99.90;;;;;;5051951;28;20452;-67
2022/03/05 01:43:32;;;;;;;19.52;10.38;;;0.90;99.90;;;;;;5050716;28;20044;-67
2022/03/05 01:45:57;;;;;;;19.13;8.80;;;0.90;99.90;;;;;;5051768;28;20174;-67
2022/03/05 01:48:23;;;;;;;16.60;9.35;;;0.90;99.90;;;;;;5051930;28;20069;-67
2022/03/05 01:50:48;;;;;;;17.02;9.68;;;0.90;99.90;;;;;;5051728;28;20029;-67
2022/03/05 01:53:14;;;;;;;21.67;9.77;;;0.90;99.90;;;;;;5050980;28;20028;-67
2022/03/05 01:55:41;;;;;;;19.33;10.18;;;0.90;99.90;;;;;;5050255;28;20148;-67
2022/03/05 01:58:08;;;;;;;16.15;8.73;;;0.90;99.90;;;;;;5051791;28;20061;-67
2022/03/05 02:00:34;;;;;;;16.55;9.02;;;0.90;99.90;;;;;;5051708;28;20039;-67
2022/03/05 02:02:59;;;;;;;19.90;9.52;;;0.90;99.90;;;;;;5051059;28;20089;-67
2022/03/05 02:05:25;;;;;;;16.20;9.43;;;0.90;99.90;;;;;;5061933;28;20037;-67
2022/03/05 02:07:51;;;;;;;17.60;9.32;;;0.90;99.90;;;;;;5062027;28;20045;-67
2022/03/05 02:10:17;;;;;;;18.50;9.68;;;0.90;99.90;;;;;;5051477;28;20493;-66
2022/03/05 02:12:42;;;;;;;17.50;8.98;;;0.90;99.90;;;;;;5054135;28;20112;-67
2022/03/05 02:15:09;;;;;;;15.57;9.30;;;0.90;99.90;;;;;;5058262;28;20474;-67
2022/03/05 02:17:35;;;;;;;19.13;9.70;;;0.90;99.90;;;;;;5051463;28;20037;-67
2022/03/05 02:20:02;;;;;;;16.45;8.50;;;0.90;99.90;;;;;;5051022;28;20496;-66
2022/03/05 02:22:28;;;;;;;19.10;8.55;;;0.90;99.90;;;;;;5050580;28;20048;-66
2022/03/05 02:24:55;;;;;;;17.38;8.75;;;0.90;99.90;;;;;;5051239;28;20554;-67
2022/03/05 02:27:23;;;;;;;16.20;8.93;;;0.80;99.90;;;;;;5051012;28;20473;-66
2022/03/05 02:29:48;;;;;;;20.35;9.45;;;0.80;99.90;;;;;;5051141;28;20060;-66
2022/03/05 02:32:14;;;;;;;20.00;8.95;;;0.80;99.90;;;;;;5050039;28;20048;-67
2022/03/05 02:34:40;;;;;;;18.90;8.55;;;0.80;99.90;;;;;;5050901;28;20119;-66
2022/03/05 02:37:10;;;;;;;16.17;8.50;;;0.90;99.90;;;;;;5051174;28;20107;-67
2022/03/05 02:39:35;;;;;;;18.48;9.35;;;0.80;99.90;;;;;;5051181;28;20044;-67
2022/03/05 02:42:01;;;;;;;16.02;9.27;;;0.80;99.90;;;;;;5050197;28;20576;-69
2022/03/05 02:44:26;;;;;;;15.68;8.15;;;0.80;99.90;;;;;;5050914;28;20051;-67
2022/03/05 02:46:52;;;;;;;18.02;8.63;;;0.80;99.90;;;;;;5050835;28;20064;-67
2022/03/05 02:49:17;;;;;;;22.95;9.13;;;0.80;99.90;;;;;;5050758;28;20481;-67
2022/03/05 02:51:43;;;;;;;14.52;7.95;;;0.70;99.90;;;;;;5049811;28;20043;-67
2022/03/05 02:54:09;;;;;;;17.33;8.35;;;0.70;99.90;;;;;;5050291;28;20051;-67
2022/03/05 02:56:34;;;;;;;14.88;7.93;;;0.70;99.90;;;;;;5048420;28;20041;-67
2022/03/05 02:59:00;;;;;;;17.08;8.10;;;0.70;99.90;;;;;;5050530;28;20041;-66
2022/03/05 03:01:25;;;;;;;17.13;8.55;;;0.70;99.90;;;;;;5050411;28;20106;-67
2022/03/05 03:03:51;;;;;;;19.05;9.45;;;0.60;99.90;;;;;;5049479;28;20048;-67
2022/03/05 03:06:17;;;;;;;16.40;8.82;;;0.70;99.90;;;;;;5050347;28;20052;-66
2022/03/05 03:08:43;;;;;;;14.82;8.27;;;0.60;99.90;;;;;;5048782;28;20391;-66
2022/03/05 03:11:08;;;;;;;17.60;7.75;;;0.60;99.90;;;;;;5050365;28;20175;-67
2022/03/05 03:13:34;;;;;;;17.50;7.63;;;0.60;99.90;;;;;;5049230;28;20045;-67
2022/03/05 03:16:00;;;;;;;18.60;9.07;;;0.60;99.90;;;;;;5048479;28;20132;-65
2022/03/05 03:18:25;;;;;;;16.20;8.02;;;0.60;99.90;;;;;;5050201;28;20543;-67
2022/03/05 03:20:51;;;;;;;17.70;9.25;;;0.50;99.90;;;;;;5050260;28;20123;-66
2022/03/05 03:23:16;;;;;;;17.85;8.52;;;0.60;99.90;;;;;;5049383;28;20110;-67
2022/03/05 03:25:42;;;;;;;12.75;7.20;;;0.60;99.90;;;;;;5049950;28;20488;-67
2022/03/05 03:28:08;;;;;;;17.15;7.85;;;0.60;99.90;;;;;;5048448;28;20532;-67
2022/03/05 03:30:34;;;;;;;18.50;7.75;;;0.60;99.90;;;;;;5049687;28;20037;-67
2022/03/05 03:33:00;;;;;;;18.50;7.75;;;0.60;99.90;;;;;;5049044;28;20036;-66
2022/03/05 03:35:25;;;;;;;18.08;8.60;;;0.60;99.90;;;;;;5054895;28;20085;-66
2022/03/05 03:37:51;;;;;;;14.25;7.75;;;0.60;99.90;;;;;;5056334;28;20029;-67
2022/03/05 03:40:18;;;;;;;18.20;9.15;;;0.60;99.90;;;;;;5056126;28;20048;-67
2022/03/05 03:42:46;;;;;;;18.77;8.07;;;0.60;99.90;;;;;;5044351;28;20382;-67
2022/03/05 03:45:13;;;;;;;17.25;8.77;;;0.60;99.90;;;;;;5059575;28;20044;-66
2022/03/05 03:47:40;;;;;;;16.10;8.30;;;0.50;99.90;;;;;;5050234;28;20041;-67
2022/03/05 03:50:07;;;;;;;13.07;7.50;;;0.50;99.90;;;;;;5049989;28;20044;-66
2022/03/05 03:52:33;;;;;;;16.80;8.25;;;0.50;99.90;;;;;;5049233;28;20056;-67
2022/03/05 03:54:59;;;;;;;19.20;8.88;;;0.60;99.90;;;;;;5049670;28;20034;-67
2022/03/05 03:57:24;;;;;;;17.25;7.82;;;0.60;99.90;;;;;;5049811;28;20413;-67
2022/03/05 03:59:51;;;;;;;17.85;7.90;;;0.60;99.90;;;;;;5049494;28;20408;-67
2022/03/05 04:02:19;;;;;;;19.23;8.38;;;0.60;99.90;;;;;;5049021;28;20151;-67
2022/03/05 04:04:45;;;;;;;18.90;8.65;;;0.50;99.90;;;;;;5048429;28;20083;-67
2022/03/05 04:09:55;;;;;;;17.25;8.35;;;0.50;99.90;;;;;;5053906;28;20052;-67
2022/03/05 04:12:22;;;;;;;17.98;8.77;;;0.50;99.90;;;;;;5052665;28;20048;-67
2022/03/05 04:14:47;;;;;;;18.13;8.75;;;0.60;99.90;;;;;;5054038;28;20041;-67
2022/03/05 04:17:13;;;;;;;16.98;8.93;;;0.50;99.90;;;;;;5051789;28;20350;-67
2022/03/05 04:19:39;;;;;;;19.77;8.70;;;0.60;99.90;;;;;;5053721;28;20041;-67
2022/03/05 04:22:05;;;;;;;16.17;8.95;;;0.50;99.90;;;;;;5052600;28;20354;-67
2022/03/05 04:24:31;;;;;;;22.08;9.10;;;0.50;99.90;;;;;;5052098;28;20052;-67
2022/03/05 04:26:56;;;;;;;16.85;8.60;;;0.50;99.90;;;;;;5053431;28;20052;-65
2022/03/05 04:29:22;;;;;;;19.67;8.35;;;0.50;99.90;;;;;;5053368;28;20401;-67
2022/03/05 04:31:48;;;;;;;17.60;9.07;;;0.50;99.90;;;;;;5052521;28;20082;-67
2022/03/05 04:34:13;;;;;;;20.30;9.57;;;0.50;99.90;;;;;;5053229;28;20477;-67
2022/03/05 04:36:39;;;;;;;19.02;9.32;;;0.50;99.90;;;;;;5051953;28;20044;-67
2022/03/05 04:39:05;;;;;;;17.52;8.65;;;0.40;99.90;;;;;;5053048;28;20068;-67
2022/03/05 04:41:31;;;;;;;18.20;8.48;;;0.40;99.90;;;;;;5053050;28;20045;-66
2022/03/05 04:43:56;;;;;;;19.38;8.93;;;0.50;99.90;;;;;;5052291;28;20052;-67
2022/03/05 04:46:22;;;;;;;19.67;9.15;;;0.50;99.90;;;;;;5053038;28;20037;-68
2022/03/05 04:48:47;;;;;;;14.70;7.25;;;0.40;99.90;;;;;;5052971;28;20043;-67
2022/03/05 04:51:13;;;;;;;17.63;8.73;;;0.50;99.90;;;;;;5052822;28;20136;-67
2022/03/05 04:53:39;;;;;;;18.77;8.00;;;0.40;99.90;;;;;;5052092;28;20044;-66
2022/03/05 04:56:04;;;;;;;18.42;8.25;;;0.40;99.90;;;;;;5052976;28;20432;-67
2022/03/05 04:58:30;;;;;;;18.10;8.63;;;0.40;99.90;;;;;;5056714;28;20043;-67
2022/03/05 05:00:55;;;;;;;16.77;8.48;;;0.40;99.90;;;;;;5059537;28;20482;-67
2022/03/05 05:03:21;;;;;;;21.20;8.80;;;0.40;99.90;;;;;;5053790;28;20037;-66
2022/03/05 05:05:47;;;;;;;18.42;8.38;;;0.40;99.90;;;;;;5052682;28;20037;-66
2022/03/05 05:08:13;;;;;;;19.90;8.68;;;0.40;99.90;;;;;;5052578;28;20421;-67
2022/03/05 05:10:38;;;;;;;20.55;8.30;;;0.40;99.90;;;;;;5052761;28;20052;-67
2022/03/05 05:13:04;;;;;;;18.35;8.95;;;0.40;99.90;;;;;;5051997;28;20105;-66
2022/03/05 05:15:29;;;;;;;18.45;9.00;;;0.40;99.90;;;;;;5052546;28;20120;-66
2022/03/05 05:17:59;;;;;;;16.98;8.40;;;0.40;99.90;;;;;;5051246;28;20525;-67
2022/03/05 05:20:25;;;;;;;17.77;8.77;;;0.40;99.90;;;;;;5063844;28;20040;-66
2022/03/05 05:22:51;;;;;;;16.75;8.27;;;0.40;99.90;;;;;;5062959;28;20133;-67
2022/03/05 05:25:17;;;;;;;18.45;8.88;;;0.30;99.90;;;;;;5052401;28;20049;-67
2022/03/05 05:27:43;;;;;;;17.48;8.73;;;0.20;99.90;;;;;;5052365;28;20047;-66
2022/03/05 05:30:09;;;;;;;21.83;8.85;;;0.30;99.90;;;;;;5052139;28;20044;-66
2022/03/05 05:32:35;;;;;;;20.98;8.30;;;0.30;99.90;;;;;;5051213;28;20049;-66
2022/03/05 05:35:01;;;;;;;21.50;8.85;;;0.30;99.90;;;;;;5052063;28;20124;-66
2022/03/05 05:37:26;;;;;;;18.35;8.07;;;0.30;99.90;;;;;;5052088;28;20135;-66
2022/03/05 05:39:52;;;;;;;17.60;8.85;;;0.30;99.90;;;;;;5052139;28;20032;-66
2022/03/05 05:42:17;;;;;;;16.83;9.15;;;0.30;99.90;;;;;;5051111;28;20047;-67
2022/03/05 05:44:43;;;;;;;18.23;8.27;;;0.30;99.90;;;;;;5051971;28;20065;-67
2022/03/05 05:47:09;;;;;;;19.17;9.20;;;0.30;99.90;;;;;;5051589;28;20166;-67
2022/03/05 05:49:35;;;;;;;19.15;8.50;;;0.30;99.90;;;;;;5052090;28;20037;-67
2022/03/05 05:52:01;;;;;;;19.63;8.63;;;0.30;99.90;;;;;;5051049;28;20059;-66
2022/03/05 05:54:27;;;;;;;20.55;7.97;;;0.20;99.90;;;;;;5051769;28;20041;-66
2022/03/05 05:56:53;;;;;;;18.52;8.95;;;0.20;99.90;;;;;;5051596;28;20041;-66
2022/03/05 05:59:19;;;;;;;17.75;9.13;;;0.20;99.90;;;;;;5050491;28;20044;-66
2022/03/05 06:01:44;;;;;;;18.40;8.98;;;0.20;99.90;;;;;;5049149;28;20041;-65
2022/03/05 06:04:10;;;;;;;14.13;7.45;;;0.20;99.90;;;;;;5042240;28;20458;-66
2022/03/05 06:06:35;;;;;;;15.60;7.30;;;0.20;99.90;;;;;;5041690;28;20124;-66
2022/03/05 06:09:01;;;;;;;17.40;8.23;;;0.20;99.90;;;;;;5048697;28;20063;-66
2022/03/05 06:11:27;;;;;;;15.40;7.55;;;0.30;99.90;;;;;;5049858;28;20126;-66
2022/03/05 06:13:52;;;;;;;15.45;7.90;;;0.30;99.90;;;;;;5048535;28;20454;-65
2022/03/05 06:16:18;;;;;;;16.25;8.23;;;0.20;99.90;;;;;;5047544;28;20116;-66
2022/03/05 06:18:43;;;;;;;14.77;7.80;;;0.20;99.90;;;;;;5051580;28;20079;-66
2022/03/05 06:21:09;;;;;;;17.13;7.55;;;0.30;99.90;;;;;;5051595;28;20045;-66
2022/03/05 06:23:36;;;;;;;16.27;7.85;;;0.20;99.90;;;;;;5054998;28;20713;-65
2022/03/05 06:26:01;;;;;;;16.13;8.05;;;0.20;99.90;;;;;;5056033;28;20033;-66
2022/03/05 06:28:28;;;;;;;18.38;9.05;;;0.30;99.90;;;;;;5049888;28;20103;-66
2022/03/05 06:30:54;;;;;;;15.93;7.38;;;0.30;99.90;;;;;;5051352;28;20433;-66
2022/03/05 06:33:19;;;;;;;12.07;7.25;;;0.30;99.90;;;;;;5050045;28;20033;-66
2022/03/05 06:35:45;;;;;;;16.65;7.40;;;0.40;99.90;;;;;;5049091;28;20048;-66
2022/03/05 06:38:11;;;;;;;16.70;7.75;;;0.30;99.90;;;;;;5051033;28;20123;-65
2022/03/05 06:40:37;;;;;;;18.48;8.23;;;0.40;99.90;;;;;;5050636;28;20116;-65
2022/03/05 06:43:03;;;;;;;14.00;7.20;;;0.40;99.90;;;;;;5050020;28;20197;-67
2022/03/05 06:45:29;;;;;;;15.35;7.97;;;0.40;99.90;;;;;;5050928;28;20041;-68
2022/03/05 06:47:54;;;;;;;20.17;8.85;;;0.40;99.90;;;;;;5051056;28;20488;-65
2022/03/05 06:50:20;;;;;;;16.13;8.15;;;0.40;99.90;;;;;;5050509;28;20512;-70
2022/03/05 06:52:45;;;;;;;15.23;8.15;;;0.40;99.90;;;;;;5048710;28;20059;-68
2022/03/05 06:55:14;;;;;;;14.70;8.77;;;0.40;99.90;;;;;;5051883;28;20037;-65
2022/03/05 06:57:41;;;;;;;15.55;8.52;;;0.50;99.90;;;;;;5057293;28;20052;-66
2022/03/05 07:00:09;;;;;;;17.23;8.68;;;0.50;99.90;;;;;;5057699;28;20143;-66
2022/03/05 07:02:35;;;;;;;18.35;8.25;;;0.60;99.90;;;;;;5049810;28;20119;-66
2022/03/05 07:05:00;;;;;;;20.10;8.20;;;0.60;99.90;;;;;;5050572;28;20101;-66
2022/03/05 07:07:26;;;;;;;17.27;8.18;;;0.60;99.90;;;;;;5050395;28;20094;-66
2022/03/05 07:09:52;;;;;;;19.58;8.98;;;0.60;99.90;;;;;;5050461;28;20041;-67
2022/03/05 07:12:17;;;;;;;16.65;9.13;;;0.70;99.90;;;;;;5049405;28;20041;-67
2022/03/05 07:14:48;;;;;;;16.60;8.65;;;0.70;99.90;;;;;;5050550;28;20041;-67
2022/03/05 07:17:15;;;;;;;20.67;8.63;;;0.70;99.90;;;;;;5049115;28;20076;-66
2022/03/05 07:19:41;;;;;;;17.38;8.68;;;0.70;99.90;;;;;;5050483;28;20040;-70
2022/03/05 07:22:06;;;;;;;15.57;8.23;;;0.70;99.90;;;;;;5049407;28;20048;-67
2022/03/05 07:24:32;;;;;;;15.98;8.18;;;0.70;99.90;;;;;;5049971;28;20045;-67
2022/03/05 07:26:57;;;;;;;16.35;8.73;;;0.90;99.90;;;;;;5048513;28;20092;-67
2022/03/05 07:29:23;;;;;;;18.45;8.75;;;0.80;99.90;;;;;;5050221;28;20111;-67
2022/03/05 07:31:48;;;;;;;17.23;8.73;;;0.90;99.90;;;;;;5057899;28;20044;-67
2022/03/05 07:34:14;;;;;;;20.33;8.38;;;0.90;99.90;;;;;;5079816;28;20044;-67
2022/03/05 07:36:39;;;;;;;19.08;9.20;;;1.00;99.90;;;;;;5089738;28;20085;-67
2022/03/05 07:39:07;;;;;;;20.75;9.25;;;1.00;99.90;;;;;;5090107;28;20046;-67
2022/03/05 07:41:33;;;;;;;19.10;8.82;;;1.10;99.90;;;;;;5089050;28;20039;-67
2022/03/05 07:43:59;;;;;;;21.48;9.52;;;1.10;99.90;;;;;;5093948;28;20082;-67
2022/03/05 07:46:25;;;;;;;19.52;9.32;;;1.10;99.90;;;;;;5092617;28;20349;-66
2022/03/05 07:48:50;;;;;;;17.85;9.10;;;1.10;99.90;;;;;;5088258;28;20365;-66
2022/03/05 07:51:16;;;;;;;20.17;10.07;;;1.10;99.90;;;;;;5090058;28;20107;-67
2022/03/05 07:53:41;;;;;;;19.83;8.90;;;1.10;99.90;;;;;;5087851;28;20103;-66
2022/03/05 07:56:10;;;;;;;22.50;9.57;;;1.20;99.90;;;;;;5090131;28;20063;-66
2022/03/05 07:58:35;;;;;;;18.98;8.98;;;1.20;99.90;;;;;;5090154;28;20044;-66
2022/03/05 08:01:01;;;;;;;21.02;10.25;;;1.20;99.90;;;;;;5088158;28;20040;-66
2022/03/05 08:03:26;;;;;;;19.27;10.10;;;1.20;99.90;;;;;;5089162;28;20369;-67
2022/03/05 08:05:52;;;;;;;20.55;10.25;;;1.30;99.90;;;;;;5090065;28;20055;-67
2022/03/05 08:08:18;;;;;;;18.98;10.13;;;1.30;99.90;;;;;;5089951;28;20464;-67
2022/03/05 08:10:43;;;;;;;20.02;9.80;;;1.30;99.90;;;;;;5089886;28;20051;-67
2022/03/05 08:13:09;;;;;;;23.17;10.20;;;1.40;99.90;;;;;;5089078;28;20036;-67
2022/03/05 08:15:34;;;;;;;20.20;10.68;;;1.40;99.90;;;;;;5089482;28;20046;-67
2022/03/05 08:18:00;;;;;;;22.60;9.85;;;1.60;99.90;;;;;;5090056;28;20131;-67
2022/03/05 08:20:31;;;;;;;19.55;10.52;;;1.50;99.90;;;;;;5089924;28;20429;-67
2022/03/05 08:22:57;;;;;;;24.40;10.60;;;1.60;99.90;;;;;;5089258;28;20408;-67
2022/03/05 08:25:24;;;;;;;22.88;11.35;;;1.70;99.90;;;;;;5095087;28;20036;-67
2022/03/05 08:27:50;;;;;;;20.80;10.60;;;1.70;99.90;;;;;;5097813;28;20048;-68
2022/03/05 08:30:16;;;;;;;22.40;11.23;;;1.80;99.90;;;;;;5092111;28;20086;-66
2022/03/05 08:32:42;;;;;;;21.35;10.80;;;1.80;99.90;;;;;;5089011;28;20127;-67
2022/03/05 08:35:09;;;;;;;21.58;9.48;;;1.80;99.90;;;;;;5089851;28;20115;-67
2022/03/05 08:37:36;;;;;;;19.48;10.30;;;1.80;99.90;;;;;;5089586;28;20032;-71
2022/03/05 08:40:02;;;;;;;18.05;10.50;;;1.90;99.90;;;;;;5088175;28;20040;-69
2022/03/05 08:42:28;;;;;;;24.88;11.77;;;2.10;99.90;;;;;;5087513;28;20151;-69
2022/03/05 08:44:53;;;;;;;21.75;10.95;;;2.10;99.90;;;;;;5089801;28;20123;-70
2022/03/05 08:47:19;;;;;;;22.70;10.77;;;2.00;99.90;;;;;;5088186;28;20063;-69
2022/03/05 08:49:44;;;;;;;23.30;11.10;;;2.00;99.90;;;;;;5089584;28;20040;-69
2022/03/05 08:52:10;;;;;;;20.85;10.23;;;2.00;99.90;;;;;;5087299;28;20142;-69
2022/03/05 08:54:36;;;;;;;27.00;11.27;;;2.10;99.90;;;;;;5092502;28;20047;-69
2022/03/05 08:57:02;;;;;;;27.40;11.45;;;2.20;99.90;;;;;;5091764;28;20071;-69
2022/03/05 08:59:28;;;;;;;27.63;11.80;;;2.20;99.90;;;;;;5094647;28;20400;-70
2022/03/05 09:01:54;;;;;;;28.00;12.02;;;2.20;99.90;;;;;;5094802;28;20028;-70
2022/03/05 09:04:20;;;;;;;22.65;11.48;;;2.30;99.90;;;;;;5093180;28;20086;-70
2022/03/05 09:06:45;;;;;;;23.77;10.95;;;2.40;99.90;;;;;;5091691;28;20420;-70
2022/03/05 09:09:11;;;;;;;25.55;12.23;;;2.60;99.90;;;;;;5091574;28;20060;-69
2022/03/05 09:11:38;;;;;;;25.23;11.30;;;2.60;99.90;;;;;;5092537;28;20039;-71
2022/03/05 09:14:04;;;;;;;30.15;12.45;;;2.60;99.90;;;;;;5092306;28;20537;-71
2022/03/05 09:16:30;;;;;;;28.77;11.93;;;2.60;99.90;;;;;;5091432;28;20032;-72
2022/03/05 09:18:56;;;;;;;23.08;11.13;;;2.80;99.90;;;;;;5091316;28;20083;-70
2022/03/05 09:21:21;;;;;;;24.65;11.55;;;2.60;99.90;;;;;;5091120;28;20078;-70
2022/03/05 09:23:50;;;;;;;28.02;12.88;;;2.70;99.90;;;;;;5090263;28;20032;-71
2022/03/05 09:26:16;;;;;;;24.35;11.27;;;2.80;99.90;;;;;;5092427;28;20051;-67
2022/03/05 09:28:42;;;;;;;28.52;13.18;;;2.90;99.90;;;;;;5092636;28;20473;-67
2022/03/05 09:31:07;;;;;;;30.65;11.68;;;2.90;99.90;;;;;;5092557;28;20040;-67
2022/03/05 09:33:33;;;;;;;28.98;12.63;;;3.10;99.90;;;;;;5091356;28;20028;-66
2022/03/05 09:35:58;;;;;;;29.30;12.48;;;3.10;99.90;;;;;;5092283;28;20032;-67
2022/03/05 09:38:24;;;;;;;27.23;11.95;;;2.90;99.90;;;;;;5092204;28;20467;-67
2022/03/05 09:40:50;;;;;;;27.42;12.65;;;2.80;99.90;;;;;;5092164;28;20105;-67
2022/03/05 09:43:18;;;;;;;27.75;12.13;;;3.00;99.90;;;;;;5091456;28;20052;-67
2022/03/05 09:45:44;;;;;;;30.17;12.35;;;3.10;99.90;;;;;;5092262;28;20481;-68
2022/03/05 09:48:14;;;;;;;33.40;13.52;;;3.20;99.90;;;;;;5092146;28;20043;-67
2022/03/05 09:50:39;;;;;;;30.13;14.05;;;3.20;99.90;;;;;;5051271;28;20490;-67
2022/03/05 09:53:05;;;;;;;30.00;12.85;;;3.30;99.90;;;;;;5050349;28;20079;-66
2022/03/05 09:55:31;;;;;;;33.50;14.43;;;3.40;99.90;;;;;;5050035;28;20110;-67
2022/03/05 09:57:57;;;;;;;28.90;12.70;;;3.50;99.90;;;;;;5050564;28;20571;-72
2022/03/05 10:00:23;;;;;;;28.27;13.00;;;3.40;99.90;;;;;;5050343;28;20041;-71
2022/03/05 10:02:49;;;;;;;33.28;14.35;;;3.30;99.90;;;;;;5049731;28;20072;-71
2022/03/05 10:05:21;;;;;;;26.35;11.90;;;3.40;99.90;;;;;;5048927;28;20481;-72
2022/03/05 10:08:10;;;;;;;34.28;14.48;;;3.60;99.90;;;;;;5051122;28;20094;-72
2022/03/05 10:11:01;;;;;;;24.98;11.57;;;3.70;99.90;;;;;;5050454;28;20440;-70
2022/03/05 10:13:31;;;;;;;32.20;12.75;;;3.70;99.90;;;;;;5060764;28;20075;-70
2022/03/05 10:16:02;;;;;;;33.10;13.20;;;3.70;99.90;;;;;;5053451;28;20110;-69
2022/03/05 10:18:29;;;;;;;30.17;13.13;;;3.70;99.90;;;;;;5050143;28;20052;-70
2022/03/05 10:20:56;;;;;;;33.65;13.48;;;3.70;99.90;;;;;;5051053;28;20047;-71
2022/03/05 10:23:22;;;;;;;29.42;13.57;;;3.80;99.90;;;;;;5050673;28;20120;-71
2022/03/05 10:25:50;;;;;;;25.88;13.05;;;3.70;99.90;;;;;;5051359;28;20051;-71
2022/03/05 10:28:29;;;;;;;30.98;13.38;;;3.70;99.90;;;;;;5051177;28;20056;-71
2022/03/05 10:31:07;;;;;;;27.63;12.38;;;3.80;99.90;;;;;;5049614;28;20048;-71
2022/03/05 10:33:36;;;;;;;31.23;12.98;;;3.90;99.90;;;;;;5050042;28;20045;-70
2022/03/05 10:36:16;;;;;;;34.05;13.38;;;3.80;99.90;;;;;;5050801;28;20041;-70
2022/03/05 10:38:49;;;;;;;35.03;14.05;;;3.90;99.90;;;;;;5050868;28;20051;-70
2022/03/05 10:41:17;;;;;;;27.92;12.85;;;4.00;99.90;;;;;;5051086;28;20095;-70
2022/03/05 10:44:03;;;;;;;31.23;14.35;;;4.10;99.90;;;;;;5050200;28;20223;-71
2022/03/05 10:46:47;;;;;;;32.05;13.43;;;4.00;99.90;;;;;;5049375;28;20115;-71
2022/03/05 10:49:40;;;;;;;30.83;13.52;;;4.00;99.90;;;;;;5032684;28;20040;-70
2022/03/05 10:52:08;;;;;;;30.95;13.52;;;4.00;99.90;;;;;;5031126;28;20115;-70
2022/03/05 10:54:40;;;;;;;31.13;13.80;;;4.10;99.90;;;;;;5049176;28;20124;-70
2022/03/05 10:57:16;;;;;;;33.67;13.23;;;4.10;99.90;;;;;;5050722;28;20041;-70
2022/03/05 10:59:47;;;;;;;32.35;13.63;;;4.10;99.90;;;;;;5049311;28;20136;-71
2022/03/05 11:02:16;;;;;;;30.20;13.13;;;4.20;99.90;;;;;;5031645;28;20208;-71
2022/03/05 11:04:43;;;;;;;31.58;13.00;;;4.20;99.90;;;;;;5047523;28;20470;-71
2022/03/05 11:07:09;;;;;;;31.10;14.32;;;4.30;99.90;;;;;;5050323;28;20037;-70
2022/03/05 11:09:37;;;;;;;34.42;14.23;;;4.40;99.90;;;;;;5050470;28;20044;-70
2022/03/05 11:12:04;;;;;;;34.42;14.00;;;4.40;99.90;;;;;;5049807;28;20071;-70
2022/03/05 11:14:30;;;;;;;33.83;13.75;;;4.40;99.90;;;;;;5049104;28;20095;-70
2022/03/05 11:16:56;;;;;;;32.55;13.50;;;4.50;99.90;;;;;;5049807;28;20045;-70
2022/03/05 11:19:23;;;;;;;34.45;13.45;;;4.50;99.90;;;;;;5048944;28;20048;-71
2022/03/05 11:21:48;;;;;;;34.30;13.57;;;4.50;99.90;;;;;;5048007;28;20486;-70
2022/03/05 11:24:18;;;;;;;29.17;15.02;;;4.60;99.90;;;;;;5050339;28;20043;-70
2022/03/05 11:26:47;;;;;;;38.67;13.90;;;4.70;99.90;;;;;;5050231;28;20090;-70
2022/03/05 11:29:19;;;;;;;29.20;11.25;;;4.80;99.90;;;;;;5048735;28;20037;-71
2022/03/05 11:31:46;;;;;;;29.88;13.43;;;4.90;99.90;;;;;;5049500;28;20041;-69
2022/03/05 11:34:17;;;;;;;31.13;13.73;;;4.80;99.90;;;;;;5049549;28;20040;-66
2022/03/05 11:36:47;;;;;;;38.43;14.10;;;4.90;99.90;;;;;;5049942;28;20148;-65
2022/03/05 11:39:16;;;;;;;31.80;13.10;;;4.90;99.90;;;;;;5049920;28;20350;-67
2022/03/05 11:42:02;;;;;;;30.10;13.70;;;4.90;99.90;;;;;;5049379;28;20068;-64
2022/03/05 11:44:39;;;;;;;32.40;14.40;;;4.90;99.90;;;;;;5049805;28;20052;-66
2022/03/05 11:47:27;;;;;;;31.58;14.13;;;5.00;99.90;;;;;;5049780;28;20045;-66
2022/03/05 11:49:59;;;;;;;36.13;13.93;;;5.00;99.90;;;;;;5049888;28;20044;-66
2022/03/05 11:52:39;;;;;;;30.42;13.40;;;5.00;99.90;;;;;;5049221;28;20045;-66
2022/03/05 11:55:11;;;;;;;32.40;14.35;;;5.00;99.90;;;;;;5049833;28;20037;-66
2022/03/05 11:57:38;;;;;;;30.90;14.93;;;5.00;99.90;;;;;;5049980;28;20041;-66
2022/03/05 12:00:04;;;;;;;36.10;15.68;;;5.10;99.90;;;;;;5049949;28;20109;-66
2022/03/05 12:02:44;;;;;;;32.65;13.48;;;5.20;99.90;;;;;;5049061;28;20115;-66
2022/03/05 12:05:09;;;;;;;32.97;14.60;;;5.20;99.90;;;;;;5048265;28;20154;-66
2022/03/05 12:07:36;;;;;;;29.60;14.02;;;5.10;99.90;;;;;;5050215;28;20131;-67
2022/03/05 12:10:11;;;;;;;36.33;15.13;;;5.20;99.90;;;;;;5049828;28;20470;-66
2022/03/05 12:12:54;;;;;;;32.50;14.93;;;5.20;99.90;;;;;;5047779;28;20401;-68
2022/03/05 12:15:39;;;;;;;33.22;14.77;;;5.30;99.90;;;;;;5049525;28;20072;-69
2022/03/05 12:18:09;;;;;;;33.63;15.60;;;5.50;99.90;;;;;;5060929;28;20401;-70
2022/03/05 12:20:38;;;;;;;35.92;14.35;;;5.60;99.90;;;;;;5067919;28;20504;-70
2022/03/05 12:23:15;;;;;;;31.15;13.48;;;5.50;99.90;;;;;;5068555;28;20043;-70
2022/03/05 12:25:44;;;;;;;37.53;15.23;;;5.50;99.90;;;;;;5069764;28;20535;-70
2022/03/05 12:28:40;;;;;;;34.80;13.90;;;5.50;99.90;;;;;;5072166;28;20076;-70
2022/03/05 12:31:05;;;;;;;32.38;14.52;;;5.60;99.90;;;;;;5072476;28;20080;-70
2022/03/05 12:33:33;;;;;;;31.77;14.55;;;5.60;99.90;;;;;;5073067;28;20047;-71
2022/03/05 12:35:59;;;;;;;32.40;14.85;;;5.80;99.90;;;;;;5073182;28;20527;-69
2022/03/05 12:38:24;;;;;;;33.38;15.38;;;5.80;99.90;;;;;;5077217;28;20036;-69
2022/03/05 12:40:50;;;;;;;37.08;14.55;;;5.80;99.90;;;;;;5074509;28;20085;-69
2022/03/05 12:43:16;;;;;;;28.33;15.07;;;5.80;99.90;;;;;;5072831;28;20139;-68
2022/03/05 12:45:43;;;;;;;34.13;15.60;;;5.80;99.90;;;;;;5073267;28;20112;-68